createdAt,value
2022-09-02T00:01:37.559Z,5.80
2022-09-02T00:04:13.778Z,4.70
2022-09-02T00:06:42.845Z,6.60
2022-09-02T00:09:13.745Z,4.67
2022-09-02T00:11:42.852Z,10.93
2022-09-02T00:14:16.297Z,3.50
2022-09-02T00:16:45.170Z,4.43
2022-09-02T00:19:12.096Z,5.80
2022-09-02T00:21:39.046Z,3.70
2022-09-02T00:24:06.531Z,4.33
2022-09-02T00:26:33.520Z,4.43
2022-09-02T00:29:00.538Z,3.70
2022-09-02T00:31:29.027Z,5.60
2022-09-02T00:33:56.482Z,5.70
2022-09-02T00:36:23.488Z,4.33
2022-09-02T00:38:51.321Z,4.10
2022-09-02T00:41:24.306Z,6.27
2022-09-02T00:44:00.159Z,5.30
2022-09-02T00:46:30.364Z,4.50
2022-09-02T00:49:28.512Z,3.80
2022-09-02T00:52:21.794Z,3.33
2022-09-02T00:55:08.767Z,4.77
2022-09-02T00:57:45.927Z,6.27
2022-09-02T01:00:24.982Z,4.27
2022-09-02T01:03:03.547Z,4.80
2022-09-02T01:05:40.666Z,4.80
2022-09-02T01:08:13.375Z,4.20
2022-09-02T01:10:41.021Z,4.50
2022-09-02T01:13:15.792Z,4.77
2022-09-02T01:15:49.643Z,4.57
2022-09-02T01:18:26.066Z,4.70
2022-09-02T01:20:53.158Z,7.90
2022-09-02T01:23:20.174Z,4.53
2022-09-02T01:25:48.382Z,4.53
2022-09-02T01:28:18.686Z,4.37
2022-09-02T01:30:51.486Z,4.97
2022-09-02T01:33:22.459Z,7.00
2022-09-02T01:35:50.726Z,5.77
2022-09-02T01:38:18.595Z,6.20
2022-09-02T01:40:45.949Z,9.43
2022-09-02T01:43:21.805Z,6.23
2022-09-02T01:45:51.793Z,8.70
2022-09-02T01:48:21.738Z,8.07
2022-09-02T01:51:01.515Z,7.40
2022-09-02T01:53:29.756Z,5.67
2022-09-02T01:55:56.841Z,7.30
2022-09-02T01:58:23.886Z,5.63
2022-09-02T02:00:50.991Z,5.50
2022-09-02T02:03:18.766Z,5.87
2022-09-02T02:05:45.711Z,8.00
2022-09-02T02:08:12.661Z,8.30
2022-09-02T02:10:42.821Z,5.90
2022-09-02T02:13:10.085Z,6.60
2022-09-02T02:15:40.534Z,5.73
2022-09-02T02:18:08.846Z,6.57
2022-09-02T02:20:37.510Z,6.90
2022-09-02T02:23:06.966Z,8.20
2022-09-02T02:25:34.170Z,9.07
2022-09-02T02:28:02.611Z,6.80
2022-09-02T02:30:29.742Z,8.30
2022-09-02T02:32:56.945Z,7.20
2022-09-02T02:35:24.064Z,8.07
2022-09-02T02:37:51.680Z,9.10
2022-09-02T02:40:22.747Z,7.00
2022-09-02T02:42:53.236Z,6.53
2022-09-02T02:45:21.043Z,5.97
2022-09-02T02:47:47.967Z,6.20
2022-09-02T02:50:19.086Z,8.03
2022-09-02T02:52:46.993Z,6.37
2022-09-02T02:55:15.468Z,5.10
2022-09-02T02:57:43.462Z,5.47
2022-09-02T03:00:13.949Z,6.10
2022-09-02T03:02:41.313Z,6.40
2022-09-02T03:05:09.716Z,5.63
2022-09-02T03:07:36.744Z,11.70
2022-09-02T03:10:08.171Z,6.30
2022-09-02T03:12:37.011Z,5.10
2022-09-02T03:15:04.960Z,6.80
2022-09-02T03:17:31.892Z,5.47
2022-09-02T03:19:59.352Z,6.70
2022-09-02T03:22:27.777Z,5.03
2022-09-02T03:24:54.838Z,4.33
2022-09-02T03:27:22.346Z,5.57
2022-09-02T03:29:49.278Z,7.17
2022-09-02T03:32:19.753Z,5.20
2022-09-02T03:34:46.776Z,5.90
2022-09-02T03:37:13.746Z,8.33
2022-09-02T03:39:40.924Z,6.93
2022-09-02T03:42:19.322Z,5.03
2022-09-02T03:44:47.267Z,5.13
2022-09-02T03:47:17.900Z,4.47
2022-09-02T03:49:47.917Z,5.27
2022-09-02T03:52:14.948Z,10.17
2022-09-02T03:54:45.646Z,5.30
2022-09-02T03:57:12.674Z,5.63
2022-09-02T03:59:41.495Z,5.80
2022-09-02T04:02:11.601Z,5.80
2022-09-02T04:04:41.564Z,4.97
2022-09-02T04:07:08.751Z,4.87
2022-09-02T04:09:35.675Z,4.67
2022-09-02T04:12:05.072Z,3.63
2022-09-02T04:14:32.026Z,5.03
2022-09-02T04:18:14.122Z,6.37
2022-09-02T04:21:19.676Z,4.53
2022-09-02T04:23:47.265Z,5.33
2022-09-02T04:26:17.682Z,6.03
2022-09-02T04:28:44.767Z,6.90
2022-09-02T04:31:14.945Z,6.40
2022-09-02T04:33:41.912Z,4.63
2022-09-02T04:36:14.593Z,4.50
2022-09-02T04:38:42.124Z,4.70
2022-09-02T04:41:17.086Z,8.77
2022-09-02T04:43:44.277Z,5.03
2022-09-02T04:46:14.860Z,4.23
2022-09-02T04:48:43.591Z,5.60
2022-09-02T04:51:17.075Z,7.03
2022-09-02T04:53:46.232Z,10.00
2022-09-02T04:56:18.167Z,4.53
2022-09-02T04:58:45.707Z,5.27
2022-09-02T05:01:17.014Z,7.80
2022-09-02T05:03:45.728Z,4.93
2022-09-02T05:06:17.569Z,5.33
2022-09-02T05:08:47.976Z,4.27
2022-09-02T05:11:28.290Z,4.93
2022-09-02T05:13:58.154Z,3.67
2022-09-02T05:16:33.849Z,5.43
2022-09-02T05:19:00.981Z,4.33
2022-09-02T05:21:27.882Z,4.23
2022-09-02T05:23:55.690Z,4.80
2022-09-02T05:26:22.659Z,3.70
2022-09-02T05:28:50.302Z,6.67
2022-09-02T05:31:19.831Z,4.40
2022-09-02T05:33:47.210Z,7.83
2022-09-02T05:36:18.777Z,5.73
2022-09-02T05:38:46.171Z,4.30
2022-09-02T05:41:17.579Z,5.23
2022-09-02T05:43:44.935Z,3.60
2022-09-02T05:46:17.671Z,4.40
2022-09-02T05:49:05.348Z,4.67
2022-09-02T05:51:54.075Z,8.90
2022-09-02T05:54:25.322Z,6.20
2022-09-02T05:56:59.012Z,5.20
2022-09-02T05:59:28.436Z,6.03
2022-09-02T06:01:56.602Z,4.53
2022-09-02T06:04:24.136Z,6.20
2022-09-02T06:06:51.909Z,4.87
2022-09-02T06:09:22.512Z,5.07
2022-09-02T06:11:51.538Z,6.77
2022-09-02T06:14:23.003Z,7.00
2022-09-02T06:16:50.707Z,5.00
2022-09-02T06:19:20.180Z,5.97
2022-09-02T06:21:49.241Z,5.20
2022-09-02T06:24:16.527Z,5.47
2022-09-02T06:26:43.530Z,5.33
2022-09-02T06:29:11.479Z,5.47
2022-09-02T06:31:42.614Z,5.87
2022-09-02T06:34:12.404Z,7.27
2022-09-02T06:36:39.636Z,5.37
2022-09-02T06:39:06.535Z,5.13
2022-09-02T06:41:34.590Z,7.33
2022-09-02T06:44:07.056Z,5.27
2022-09-02T06:46:39.125Z,6.13
2022-09-02T06:49:08.473Z,6.60
2022-09-02T06:51:48.064Z,4.93
2022-09-02T06:54:18.472Z,4.67
2022-09-02T06:56:49.591Z,3.90
2022-09-02T06:59:19.235Z,4.97
2022-09-02T07:01:47.389Z,4.50
2022-09-02T07:04:34.080Z,4.80
2022-09-02T07:07:01.008Z,4.83
2022-09-02T07:09:31.318Z,4.50
2022-09-02T07:12:05.375Z,4.90
2022-09-02T07:14:41.806Z,5.57
2022-09-02T07:17:12.568Z,3.90
2022-09-02T07:19:39.612Z,3.17
2022-09-02T07:22:07.115Z,5.20
2022-09-02T07:24:34.020Z,3.93
2022-09-02T07:27:01.285Z,3.97
2022-09-02T07:29:28.208Z,3.60
2022-09-02T07:31:55.056Z,3.60
2022-09-02T07:34:21.985Z,4.00
2022-09-02T07:36:48.924Z,3.33
2022-09-02T07:39:17.979Z,2.80
2022-09-02T07:41:49.220Z,2.10
2022-09-02T07:44:18.291Z,2.47
2022-09-02T07:46:46.493Z,3.57
2022-09-02T07:49:16.430Z,2.23
2022-09-02T07:51:49.310Z,2.47
2022-09-02T07:54:21.275Z,2.70
2022-09-02T07:56:49.797Z,2.90
2022-09-02T07:59:18.070Z,2.97
2022-09-02T08:01:45.225Z,2.43
2022-09-02T08:04:13.910Z,3.30
2022-09-02T08:06:41.278Z,2.57
2022-09-02T08:09:12.394Z,2.43
2022-09-02T08:11:42.675Z,1.90
2022-09-02T08:14:14.316Z,2.20
2022-09-02T08:16:45.278Z,4.10
2022-09-02T08:19:14.153Z,2.63
2022-09-02T08:21:41.034Z,2.90
2022-09-02T08:24:07.941Z,1.93
2022-09-02T08:26:37.198Z,2.03
2022-09-02T08:29:08.922Z,2.30
2022-09-02T08:31:38.358Z,1.70
2022-09-02T08:34:06.618Z,2.63
2022-09-02T08:36:33.587Z,1.70
2022-09-02T08:39:04.163Z,2.17
2022-09-02T08:42:16.441Z,2.50
2022-09-02T08:44:43.404Z,2.10
2022-09-02T08:47:19.868Z,2.20
2022-09-02T08:49:51.548Z,2.17
2022-09-02T08:52:51.017Z,2.10
2022-09-02T08:55:28.942Z,1.97
2022-09-02T08:57:56.676Z,1.83
2022-09-02T09:00:24.059Z,1.57
2022-09-02T09:03:29.262Z,6.10
2022-09-02T09:06:28.385Z,4.63
2022-09-02T09:09:21.406Z,2.00
2022-09-02T09:12:18.508Z,2.60
2022-09-02T09:15:13.166Z,1.97
2022-09-02T09:17:49.274Z,2.60
2022-09-02T09:20:24.520Z,6.63
2022-09-02T09:22:56.761Z,1.90
2022-09-02T09:25:29.746Z,1.70
2022-09-02T09:27:58.617Z,2.10
2022-09-02T09:30:26.119Z,1.90
2022-09-02T09:32:57.359Z,1.90
2022-09-02T09:35:26.309Z,1.87
2022-09-02T09:37:55.400Z,1.80
2022-09-02T09:40:33.203Z,1.87
2022-09-02T09:43:13.202Z,2.07
2022-09-02T09:45:51.469Z,1.93
2022-09-02T09:48:31.042Z,1.63
2022-09-02T09:50:57.840Z,1.70
2022-09-02T09:53:34.106Z,1.70
2022-09-02T09:56:08.287Z,1.60
2022-09-02T09:58:41.182Z,2.40
2022-09-02T10:01:31.914Z,1.43
2022-09-02T10:04:42.389Z,1.87
2022-09-02T10:06:58.916Z,1.60
2022-09-02T10:09:34.619Z,1.30
2022-09-02T10:12:13.529Z,1.43
2022-09-02T10:14:49.047Z,1.60
2022-09-02T10:17:36.989Z,1.60
2022-09-02T10:20:33.606Z,1.40
2022-09-02T10:23:15.913Z,2.00
2022-09-02T10:26:07.499Z,3.93
2022-09-02T10:29:08.829Z,3.17
2022-09-02T10:32:23.307Z,1.60
2022-09-02T10:35:13.057Z,4.20
2022-09-02T10:38:12.874Z,1.43
2022-09-02T10:40:55.233Z,1.07
2022-09-02T10:43:48.055Z,1.30
2022-09-02T10:46:25.939Z,1.40
2022-09-02T10:49:07.198Z,3.27
2022-09-02T10:52:03.412Z,3.53
2022-09-02T10:54:41.177Z,1.73
2022-09-02T10:57:43.464Z,1.10
2022-09-02T11:00:18.502Z,1.63
2022-09-02T11:03:10.906Z,1.63
2022-09-02T11:05:52.765Z,1.70
2022-09-02T11:08:34.390Z,1.80
2022-09-02T11:11:24.604Z,2.30
2022-09-02T11:13:57.561Z,1.37
2022-09-02T11:16:34.200Z,3.40
2022-09-02T11:19:31.121Z,1.53
2022-09-02T11:22:37.287Z,1.33
2022-09-02T11:25:18.186Z,1.53
2022-09-02T11:28:36.532Z,0.70
2022-09-02T11:31:15.067Z,1.83
2022-09-02T11:34:09.669Z,2.00
2022-09-02T11:36:40.855Z,1.00
2022-09-02T11:39:25.634Z,1.57
2022-09-02T11:42:18.932Z,1.70
2022-09-02T11:45:13.601Z,3.97
2022-09-02T11:47:58.491Z,2.30
2022-09-02T11:50:55.209Z,1.47
2022-09-02T11:53:35.823Z,1.30
2022-09-02T11:56:11.958Z,1.33
2022-09-02T11:58:55.287Z,7.03
2022-09-02T12:01:29.876Z,4.33
2022-09-02T12:07:14.789Z,1.57
2022-09-02T12:09:47.997Z,2.00
2022-09-02T12:12:36.979Z,1.00
2022-09-02T12:15:07.458Z,1.47
2022-09-02T12:17:46.218Z,0.80
2022-09-02T12:20:40.048Z,1.00
2022-09-02T12:23:09.263Z,1.50
2022-09-02T12:25:48.663Z,1.00
2022-09-02T12:28:27.952Z,0.87
2022-09-02T12:31:23.953Z,1.20
2022-09-02T12:33:53.672Z,1.53
2022-09-02T12:36:46.187Z,1.40
2022-09-02T12:39:41.956Z,1.30
2022-09-02T12:42:11.821Z,1.57
2022-09-02T12:45:28.697Z,1.63
2022-09-02T12:48:12.174Z,1.47
2022-09-02T12:50:53.664Z,3.33
2022-09-02T12:53:46.972Z,1.70
2022-09-02T12:56:23.875Z,1.17
2022-09-02T12:59:01.647Z,1.53
2022-09-02T13:02:11.800Z,1.73
2022-09-02T13:04:48.872Z,0.93
2022-09-02T13:08:12.287Z,3.63
2022-09-02T13:11:35.251Z,0.60
2022-09-02T13:14:52.798Z,1.37
2022-09-02T13:17:46.535Z,1.30
2022-09-02T13:20:56.909Z,0.87
2022-09-02T13:24:00.977Z,1.43
2022-09-02T13:26:49.602Z,1.40
2022-09-02T13:29:59.943Z,1.30
2022-09-02T13:32:31.113Z,1.10
2022-09-02T13:35:06.760Z,0.90
2022-09-02T13:37:40.828Z,1.60
2022-09-02T13:40:29.146Z,1.20
2022-09-02T13:43:26.808Z,1.63
2022-09-02T13:46:00.127Z,1.60
2022-09-02T13:48:31.267Z,1.60
2022-09-02T13:51:14.456Z,2.00
2022-09-02T13:54:05.626Z,3.50
2022-09-02T13:56:32.864Z,1.50
2022-09-02T13:58:59.899Z,1.30
2022-09-02T14:01:29.893Z,1.60
2022-09-02T14:04:00.307Z,1.83
2022-09-02T14:06:33.456Z,1.30
2022-09-02T14:09:05.280Z,1.20
2022-09-02T14:11:42.954Z,1.80
2022-09-02T14:14:15.640Z,2.40
2022-09-02T14:16:42.630Z,1.40
2022-09-02T14:19:17.274Z,1.70
2022-09-02T14:21:54.015Z,1.33
2022-09-02T14:24:27.745Z,1.40
2022-09-02T14:27:00.128Z,2.90
2022-09-02T14:29:31.922Z,1.20
2022-09-02T14:32:13.355Z,2.40
2022-09-02T14:34:46.661Z,6.17
2022-09-02T14:37:22.980Z,1.87
2022-09-02T14:39:59.836Z,1.77
2022-09-02T14:42:29.438Z,1.20
2022-09-02T14:44:59.398Z,2.23
2022-09-02T14:47:28.120Z,0.50
2022-09-02T14:49:56.071Z,0.57
2022-09-02T14:52:30.534Z,0.90
2022-09-02T14:54:58.256Z,1.40
2022-09-02T14:57:35.400Z,0.80
2022-09-02T15:00:14.997Z,1.20
2022-09-02T15:02:46.336Z,1.93
2022-09-02T15:05:16.924Z,0.70
2022-09-02T15:07:45.767Z,1.20
2022-09-02T15:10:12.708Z,1.10
2022-09-02T15:12:49.253Z,1.23
2022-09-02T15:15:16.925Z,1.40
2022-09-02T15:17:44.076Z,1.30
2022-09-02T15:20:11.587Z,17.57
2022-09-02T15:22:38.726Z,5.80
2022-09-02T15:25:10.610Z,1.70
2022-09-02T15:27:37.927Z,1.53
2022-09-02T15:30:07.099Z,1.73
2022-09-02T15:32:33.971Z,2.00
2022-09-02T15:35:00.798Z,1.40
2022-09-02T15:37:27.930Z,1.73
2022-09-02T15:39:55.261Z,1.60
2022-09-02T15:42:22.302Z,1.43
2022-09-02T15:44:49.508Z,2.57
2022-09-02T15:47:16.426Z,4.67
2022-09-02T15:49:43.357Z,1.60
2022-09-02T15:52:11.188Z,1.20
2022-09-02T15:54:38.056Z,1.23
2022-09-02T15:57:05.243Z,1.10
2022-09-02T15:59:32.138Z,3.07
2022-09-02T16:01:59.376Z,1.47
2022-09-02T16:04:29.988Z,1.13
2022-09-02T16:06:57.069Z,1.00
2022-09-02T16:09:24.165Z,1.30
2022-09-02T16:11:54.074Z,1.20
2022-09-02T16:14:22.958Z,1.90
2022-09-02T16:16:53.144Z,4.70
2022-09-02T16:19:21.609Z,1.80
2022-09-02T16:21:52.626Z,1.50
2022-09-02T16:24:21.349Z,4.80
2022-09-02T16:26:48.912Z,9.63
2022-09-02T16:29:16.791Z,3.53
2022-09-02T16:32:02.387Z,1.10
2022-09-02T16:34:34.077Z,2.40
2022-09-02T16:37:00.946Z,1.10
2022-09-02T16:39:27.880Z,2.30
2022-09-02T16:41:55.312Z,1.07
2022-09-02T16:44:25.038Z,1.40
2022-09-02T16:46:53.214Z,1.10
2022-09-02T16:49:21.992Z,1.90
2022-09-02T16:51:58.289Z,1.67
2022-09-02T16:54:31.257Z,3.43
2022-09-02T16:57:00.778Z,1.00
2022-09-02T16:59:27.736Z,1.17
2022-09-02T17:01:54.704Z,1.77
2022-09-02T17:04:21.579Z,1.57
2022-09-02T17:06:48.654Z,1.50
2022-09-02T17:09:16.292Z,1.30
2022-09-02T17:11:45.148Z,0.90
2022-09-02T17:14:16.365Z,1.30
2022-09-02T17:16:48.911Z,1.33
2022-09-02T17:19:22.349Z,1.00
2022-09-02T17:21:52.916Z,1.40
2022-09-02T17:24:24.267Z,0.97
2022-09-02T17:26:56.041Z,1.30
2022-09-02T17:29:48.070Z,2.30
2022-09-02T17:32:13.764Z,1.17
2022-09-02T17:34:41.005Z,1.10
2022-09-02T17:37:08.026Z,1.10
2022-09-02T17:39:35.037Z,4.30
2022-09-02T17:42:05.099Z,6.83
2022-09-02T17:44:37.447Z,1.27
2022-09-02T17:47:10.850Z,0.80
2022-09-02T17:49:39.121Z,1.20
2022-09-02T17:52:07.876Z,1.20
2022-09-02T17:54:36.559Z,1.47
2022-09-02T17:57:18.783Z,1.30
2022-09-02T18:00:16.095Z,1.43
2022-09-02T18:03:22.906Z,1.30
2022-09-02T18:06:16.530Z,1.40
2022-09-02T18:08:52.624Z,1.83
2022-09-02T18:11:20.652Z,3.70
2022-09-02T18:14:18.023Z,2.00
2022-09-02T18:17:18.549Z,3.60
2022-09-02T18:20:28.873Z,2.20
2022-09-02T18:23:13.805Z,2.00
2022-09-02T18:26:30.301Z,2.13
2022-09-02T18:29:40.924Z,1.10
2022-09-02T18:32:33.158Z,1.53
2022-09-02T18:35:28.126Z,3.03
2022-09-02T18:38:28.140Z,1.33
2022-09-02T18:41:24.171Z,1.80
2022-09-02T18:44:10.131Z,1.53
2022-09-02T18:46:58.056Z,2.10
2022-09-02T18:49:28.130Z,1.50
2022-09-02T18:52:00.593Z,1.63
2022-09-02T18:54:59.494Z,6.10
2022-09-02T18:57:33.545Z,2.23
2022-09-02T19:00:19.450Z,12.57
2022-09-02T19:03:01.458Z,3.77
2022-09-02T19:05:32.766Z,1.73
2022-09-02T19:08:29.764Z,4.50
2022-09-02T19:11:03.511Z,4.70
2022-09-02T19:13:47.008Z,17.60
2022-09-02T19:16:21.081Z,21.37
2022-09-02T19:18:49.191Z,12.00
2022-09-02T19:21:28.633Z,7.00
2022-09-02T19:23:55.764Z,6.13
2022-09-02T19:26:24.247Z,4.90
2022-09-02T19:28:52.343Z,2.30
2022-09-02T19:31:23.899Z,2.63
2022-09-02T19:33:54.114Z,1.87
2022-09-02T19:36:26.435Z,2.33
2022-09-02T19:39:03.493Z,13.40
2022-09-02T19:41:30.464Z,12.43
2022-09-02T19:43:58.209Z,8.03
2022-09-02T19:47:06.930Z,1.83
2022-09-02T19:49:12.592Z,3.30
2022-09-02T19:51:43.308Z,3.07
2022-09-02T19:54:14.478Z,1.80
2022-09-02T19:56:42.896Z,1.90
2022-09-02T19:59:10.960Z,2.40
2022-09-02T20:01:38.730Z,1.50
2022-09-02T20:04:06.867Z,4.10
2022-09-02T20:06:34.354Z,2.73
2022-09-02T20:09:04.036Z,2.10
2022-09-02T20:11:31.169Z,1.27
2022-09-02T20:13:58.489Z,1.60
2022-09-02T20:16:29.140Z,1.70
2022-09-02T20:18:57.396Z,2.93
2022-09-02T20:21:27.692Z,1.37
2022-09-02T20:23:59.174Z,2.73
2022-09-02T20:26:50.939Z,1.73
2022-09-02T20:29:46.682Z,1.67
2022-09-02T20:32:46.179Z,1.70
2022-09-02T20:35:34.627Z,1.63
2022-09-02T20:38:35.721Z,1.60
2022-09-02T20:41:16.974Z,1.60
2022-09-02T20:44:23.614Z,2.60
2022-09-02T20:47:24.502Z,1.80
2022-09-02T20:50:29.752Z,4.53
2022-09-02T20:53:11.577Z,1.30
2022-09-02T20:55:47.578Z,2.03
2022-09-02T20:58:42.193Z,1.57
2022-09-02T21:01:22.535Z,1.83
2022-09-02T21:04:28.997Z,1.77
2022-09-02T21:07:21.481Z,1.80
2022-09-02T21:10:10.470Z,1.50
2022-09-02T21:12:53.370Z,1.70
2022-09-02T21:15:33.547Z,1.60
2022-09-02T21:18:16.928Z,1.63
2022-09-02T21:20:54.704Z,2.03
2022-09-02T21:23:38.487Z,1.43
2022-09-02T21:26:23.330Z,1.37
2022-09-02T21:29:04.563Z,3.03
2022-09-02T21:31:53.455Z,1.47
2022-09-02T21:34:38.957Z,1.70
2022-09-02T21:37:09.484Z,1.90
2022-09-02T21:39:42.988Z,1.60
2022-09-02T21:42:32.394Z,1.60
2022-09-02T21:45:34.502Z,1.87
2022-09-02T21:48:15.045Z,2.03
2022-09-02T21:50:58.784Z,1.60
2022-09-02T21:54:02.309Z,1.50
2022-09-02T21:56:49.612Z,1.50
2022-09-02T21:59:44.929Z,1.70
2022-09-02T22:02:27.818Z,2.70
2022-09-02T22:05:23.033Z,1.47
2022-09-02T22:08:02.924Z,1.60
2022-09-02T22:11:00.346Z,1.27
2022-09-02T22:13:31.727Z,1.40
2022-09-02T22:16:21.177Z,2.40
2022-09-02T22:19:00.295Z,1.83
2022-09-02T22:21:48.550Z,1.70
2022-09-02T22:24:28.488Z,1.70
2022-09-02T22:27:06.386Z,1.70
2022-09-02T22:30:14.526Z,1.73
2022-09-02T22:33:03.721Z,3.80
2022-09-02T22:35:45.129Z,1.47
2022-09-02T22:38:26.400Z,1.90
2022-09-02T22:41:20.120Z,1.97
2022-09-02T22:43:56.406Z,1.40
2022-09-02T22:47:20.047Z,1.70
2022-09-02T22:50:13.136Z,2.00
2022-09-02T22:52:46.378Z,1.77
2022-09-02T22:55:42.591Z,4.47
2022-09-02T22:58:38.730Z,3.70
2022-09-02T23:01:51.652Z,4.87
2022-09-02T23:04:43.085Z,1.80
2022-09-02T23:07:13.290Z,3.23
2022-09-02T23:09:40.352Z,2.30
2022-09-02T23:12:13.041Z,2.07
2022-09-02T23:15:10.214Z,2.40
2022-09-02T23:17:36.951Z,2.00
2022-09-02T23:20:30.608Z,2.47
2022-09-02T23:23:38.583Z,2.10
2022-09-02T23:26:45.020Z,2.60
2022-09-02T23:29:24.014Z,2.37
2022-09-02T23:32:24.497Z,2.30
2022-09-02T23:35:33.220Z,5.60
2022-09-02T23:38:19.805Z,2.03
2022-09-02T23:41:00.546Z,2.63
2022-09-02T23:43:27.594Z,5.77
2022-09-02T23:45:55.944Z,2.17
2022-09-02T23:49:05.396Z,2.07
2022-09-02T23:52:00.924Z,2.20
2022-09-02T23:54:36.191Z,1.77
2022-09-02T23:57:50.817Z,2.50
